sensor_id;sensor_type;location;lat;lon;timestamp;noise_LAeq;noise_LA_min;noise_LA_max;noise_LA01;noise_LA95
4048;Laerm;2038;51.728;6.674;2023-04-15T00:02:17;40.99;36.98;43.72;;
4048;Laerm;2038;51.728;6.674;2023-04-15T00:04:45;40.87;37.12;43.54;;
4048;Laerm;2038;51.728;6.674;2023-04-15T00:07:12;43.05;37.12;54.59;;
4048;Laerm;2038;51.728;6.674;2023-04-15T00:09:39;41.03;35.94;43.39;;
4048;Laerm;2038;51.728;6.674;2023-04-15T00:12:06;41.66;37.12;52.64;;
4048;Laerm;2038;51.728;6.674;2023-04-15T00:14:34;41.18;36.91;43.58;;
4048;Laerm;2038;51.728;6.674;2023-04-15T00:17:04;42.41;36.69;56.17;;
4048;Laerm;2038;51.728;6.674;2023-04-15T00:19:30;41.33;37.52;43.81;;
4048;Laerm;2038;51.728;6.674;2023-04-15T00:21:57;41.76;37.12;50.70;;
4048;Laerm;2038;51.728;6.674;2023-04-15T00:24:23;43.44;37.12;56.54;;
4048;Laerm;2038;51.728;6.674;2023-04-15T00:26:50;42.98;36.69;53.03;;
4048;Laerm;2038;51.728;6.674;2023-04-15T00:29:16;41.53;36.91;52.02;;
4048;Laerm;2038;51.728;6.674;2023-04-15T00:31:42;40.49;36.69;43.09;;
4048;Laerm;2038;51.728;6.674;2023-04-15T00:34:08;41.34;36.69;52.53;;
4048;Laerm;2038;51.728;6.674;2023-04-15T00:36:34;40.62;37.12;42.98;;
4048;Laerm;2038;51.728;6.674;2023-04-15T00:39:01;40.95;36.91;43.63;;
4048;Laerm;2038;51.728;6.674;2023-04-15T00:41:28;41.42;36.91;50.88;;
4048;Laerm;2038;51.728;6.674;2023-04-15T00:43:54;40.83;36.69;43.44;;
4048;Laerm;2038;51.728;6.674;2023-04-15T00:46:22;41.16;36.20;43.63;;
4048;Laerm;2038;51.728;6.674;2023-04-15T00:48:50;40.21;36.20;43.39;;
4048;Laerm;2038;51.728;6.674;2023-04-15T00:51:16;40.35;35.66;42.82;;
4048;Laerm;2038;51.728;6.674;2023-04-15T00:53:42;40.31;36.45;43.14;;
4048;Laerm;2038;51.728;6.674;2023-04-15T00:56:09;39.57;36.20;42.35;;
4048;Laerm;2038;51.728;6.674;2023-04-15T00:58:35;40.43;36.91;42.93;;
4048;Laerm;2038;51.728;6.674;2023-04-15T01:01:03;40.27;36.56;42.88;;
4048;Laerm;2038;51.728;6.674;2023-04-15T01:03:29;39.74;36.20;42.71;;
4048;Laerm;2038;51.728;6.674;2023-04-15T01:05:56;40.14;36.20;42.98;;
4048;Laerm;2038;51.728;6.674;2023-04-15T01:08:29;40.20;36.45;43.04;;
4048;Laerm;2038;51.728;6.674;2023-04-15T01:11:00;40.41;35.94;42.88;;
4048;Laerm;2038;51.728;6.674;2023-04-15T01:13:27;40.06;35.66;42.65;;
4048;Laerm;2038;51.728;6.674;2023-04-15T01:15:55;40.38;36.69;43.14;;
4048;Laerm;2038;51.728;6.674;2023-04-15T01:18:23;40.04;36.20;42.82;;
4048;Laerm;2038;51.728;6.674;2023-04-15T01:20:49;40.53;36.91;52.83;;
4048;Laerm;2038;51.728;6.674;2023-04-15T01:23:16;41.46;36.91;55.39;;
4048;Laerm;2038;51.728;6.674;2023-04-15T01:25:44;40.09;36.45;42.59;;
4048;Laerm;2038;51.728;6.674;2023-04-15T01:28:10;39.99;35.94;42.71;;
4048;Laerm;2038;51.728;6.674;2023-04-15T01:30:37;40.32;36.69;43.04;;
4048;Laerm;2038;51.728;6.674;2023-04-15T01:33:03;40.64;36.69;53.20;;
4048;Laerm;2038;51.728;6.674;2023-04-15T01:35:29;40.33;36.69;43.14;;
4048;Laerm;2038;51.728;6.674;2023-04-15T01:38:07;41.41;36.69;52.51;;
4048;Laerm;2038;51.728;6.674;2023-04-15T01:40:34;40.33;36.91;44.69;;
4048;Laerm;2038;51.728;6.674;2023-04-15T01:43:01;40.79;36.45;43.39;;
4048;Laerm;2038;51.728;6.674;2023-04-15T01:45:28;41.60;36.91;52.38;;
4048;Laerm;2038;51.728;6.674;2023-04-15T01:47:55;41.37;36.69;51.50;;
4048;Laerm;2038;51.728;6.674;2023-04-15T01:50:21;40.66;36.69;43.39;;
4048;Laerm;2038;51.728;6.674;2023-04-15T01:52:47;40.89;37.12;43.60;;
4048;Laerm;2038;51.728;6.674;2023-04-15T01:55:14;41.65;36.20;51.66;;
4048;Laerm;2038;51.728;6.674;2023-04-15T01:57:41;40.99;37.32;43.68;;
4048;Laerm;2038;51.728;6.674;2023-04-15T02:00:07;40.87;37.12;43.24;;
4048;Laerm;2038;51.728;6.674;2023-04-15T02:02:34;41.22;36.45;44.76;;
4048;Laerm;2038;51.728;6.674;2023-04-15T02:05:00;41.32;36.69;45.20;;
4048;Laerm;2038;51.728;6.674;2023-04-15T02:07:27;41.98;37.88;46.30;;
4048;Laerm;2038;51.728;6.674;2023-04-15T02:09:57;42.94;36.69;53.09;;
4048;Laerm;2038;51.728;6.674;2023-04-15T02:12:23;42.02;36.69;47.88;;
4048;Laerm;2038;51.728;6.674;2023-04-15T02:14:49;42.54;38.21;51.81;;
4048;Laerm;2038;51.728;6.674;2023-04-15T02:17:15;43.22;37.70;58.01;;
4048;Laerm;2038;51.728;6.674;2023-04-15T02:19:42;42.68;37.70;53.16;;
4048;Laerm;2038;51.728;6.674;2023-04-15T02:22:08;41.38;37.12;44.11;;
4048;Laerm;2038;51.728;6.674;2023-04-15T02:24:36;42.07;37.32;45.14;;
4048;Laerm;2038;51.728;6.674;2023-04-15T02:27:02;42.21;37.70;47.54;;
4048;Laerm;2038;51.728;6.674;2023-04-15T02:29:30;44.64;36.45;59.27;;
4048;Laerm;2038;51.728;6.674;2023-04-15T02:31:57;42.07;37.70;45.77;;
4048;Laerm;2038;51.728;6.674;2023-04-15T02:34:23;42.20;38.52;45.33;;
4048;Laerm;2038;51.728;6.674;2023-04-15T02:36:49;42.37;38.52;48.51;;
4048;Laerm;2038;51.728;6.674;2023-04-15T02:39:19;42.28;38.21;47.50;;
4048;Laerm;2038;51.728;6.674;2023-04-15T02:41:46;44.09;38.21;55.54;;
4048;Laerm;2038;51.728;6.674;2023-04-15T02:44:16;42.39;37.88;45.23;;
4048;Laerm;2038;51.728;6.674;2023-04-15T02:46:46;42.50;38.95;49.78;;
4048;Laerm;2038;51.728;6.674;2023-04-15T02:49:17;42.36;39.58;45.42;;
4048;Laerm;2038;51.728;6.674;2023-04-15T02:51:44;43.32;39.34;54.01;;
4048;Laerm;2038;51.728;6.674;2023-04-15T02:54:18;42.48;38.37;46.20;;
4048;Laerm;2038;51.728;6.674;2023-04-15T02:56:45;42.85;39.08;49.14;;
4048;Laerm;2038;51.728;6.674;2023-04-15T02:59:14;42.46;39.34;44.73;;
4048;Laerm;2038;51.728;6.674;2023-04-15T03:01:40;43.79;38.81;56.24;;
4048;Laerm;2038;51.728;6.674;2023-04-15T03:04:07;43.98;38.81;56.81;;
4048;Laerm;2038;51.728;6.674;2023-04-15T03:06:34;43.13;38.95;54.68;;
4048;Laerm;2038;51.728;6.674;2023-04-15T03:09:00;45.13;39.08;59.52;;
4048;Laerm;2038;51.728;6.674;2023-04-15T03:11:32;42.56;38.95;47.28;;
4048;Laerm;2038;51.728;6.674;2023-04-15T03:13:58;43.17;39.58;54.46;;
4048;Laerm;2038;51.728;6.674;2023-04-15T03:16:24;42.52;38.67;51.13;;
4048;Laerm;2038;51.728;6.674;2023-04-15T03:18:51;42.38;38.81;45.45;;
4048;Laerm;2038;51.728;6.674;2023-04-15T03:21:17;42.47;38.81;44.76;;
4048;Laerm;2038;51.728;6.674;2023-04-15T03:23:44;42.57;39.21;48.56;;
4048;Laerm;2038;51.728;6.674;2023-04-15T03:26:25;43.39;38.81;55.11;;
4048;Laerm;2038;51.728;6.674;2023-04-15T03:28:52;42.32;38.95;45.66;;
4048;Laerm;2038;51.728;6.674;2023-04-15T03:31:18;42.48;38.81;51.08;;
4048;Laerm;2038;51.728;6.674;2023-04-15T03:33:44;41.92;38.21;44.07;;
4048;Laerm;2038;51.728;6.674;2023-04-15T03:36:10;42.64;39.21;52.27;;
4048;Laerm;2038;51.728;6.674;2023-04-15T03:38:37;42.25;38.21;53.17;;
4048;Laerm;2038;51.728;6.674;2023-04-15T03:41:03;42.14;38.52;46.67;;
4048;Laerm;2038;51.728;6.674;2023-04-15T03:43:30;41.94;38.52;47.68;;
4048;Laerm;2038;51.728;6.674;2023-04-15T03:45:56;43.07;38.52;55.40;;
4048;Laerm;2038;51.728;6.674;2023-04-15T03:48:22;42.27;38.05;52.66;;
4048;Laerm;2038;51.728;6.674;2023-04-15T03:50:48;41.54;37.88;44.54;;
4048;Laerm;2038;51.728;6.674;2023-04-15T03:53:15;42.67;38.05;57.57;;
4048;Laerm;2038;51.728;6.674;2023-04-15T03:55:41;42.06;38.52;54.90;;
4048;Laerm;2038;51.728;6.674;2023-04-15T03:58:08;41.49;37.70;47.72;;
4048;Laerm;2038;51.728;6.674;2023-04-15T04:00:38;42.77;38.52;57.89;;
4048;Laerm;2038;51.728;6.674;2023-04-15T04:03:04;45.24;37.70;59.43;;
4048;Laerm;2038;51.728;6.674;2023-04-15T04:05:31;46.85;38.21;63.93;;
4048;Laerm;2038;51.728;6.674;2023-04-15T04:07:57;48.47;38.52;63.26;;
4048;Laerm;2038;51.728;6.674;2023-04-15T04:10:23;45.89;38.81;60.24;;
4048;Laerm;2038;51.728;6.674;2023-04-15T04:12:50;46.35;37.88;64.43;;
4048;Laerm;2038;51.728;6.674;2023-04-15T04:15:16;43.15;37.70;61.61;;
4048;Laerm;2038;51.728;6.674;2023-04-15T04:17:42;41.87;38.37;50.98;;
4048;Laerm;2038;51.728;6.674;2023-04-15T04:20:08;51.10;38.37;67.53;;
4048;Laerm;2038;51.728;6.674;2023-04-15T04:22:41;45.91;37.32;62.39;;
4048;Laerm;2038;51.728;6.674;2023-04-15T04:25:08;47.98;36.69;64.62;;
4048;Laerm;2038;51.728;6.674;2023-04-15T04:27:35;46.92;37.70;64.32;;
4048;Laerm;2038;51.728;6.674;2023-04-15T04:30:02;49.48;38.37;63.02;;
4048;Laerm;2038;51.728;6.674;2023-04-15T04:32:28;43.32;37.87;58.14;;
4048;Laerm;2038;51.728;6.674;2023-04-15T04:34:55;44.61;37.52;57.82;;
4048;Laerm;2038;51.728;6.674;2023-04-15T04:37:21;45.79;37.32;62.22;;
4048;Laerm;2038;51.728;6.674;2023-04-15T04:39:48;45.87;37.70;62.43;;
4048;Laerm;2038;51.728;6.674;2023-04-15T04:42:14;41.57;37.70;52.42;;
4048;Laerm;2038;51.728;6.674;2023-04-15T04:44:41;43.10;38.37;54.17;;
4048;Laerm;2038;51.728;6.674;2023-04-15T04:47:07;42.20;38.37;52.91;;
4048;Laerm;2038;51.728;6.674;2023-04-15T04:49:33;42.96;38.21;59.46;;
4048;Laerm;2038;51.728;6.674;2023-04-15T04:52:00;45.25;38.52;61.70;;
4048;Laerm;2038;51.728;6.674;2023-04-15T04:54:26;45.76;38.05;60.00;;
4048;Laerm;2038;51.728;6.674;2023-04-15T04:56:52;43.81;38.21;59.94;;
4048;Laerm;2038;51.728;6.674;2023-04-15T04:59:18;43.34;38.52;57.18;;
4048;Laerm;2038;51.728;6.674;2023-04-15T05:01:45;41.30;38.37;51.82;;
4048;Laerm;2038;51.728;6.674;2023-04-15T05:04:11;44.27;38.67;54.96;;
4048;Laerm;2038;51.728;6.674;2023-04-15T05:06:37;42.73;38.37;52.87;;
4048;Laerm;2038;51.728;6.674;2023-04-15T05:09:04;45.75;37.88;61.71;;
4048;Laerm;2038;51.728;6.674;2023-04-15T05:11:30;44.70;38.52;65.16;;
4048;Laerm;2038;51.728;6.674;2023-04-15T05:13:56;43.38;38.21;63.31;;
4048;Laerm;2038;51.728;6.674;2023-04-15T05:16:24;42.41;38.05;54.56;;
4048;Laerm;2038;51.728;6.674;2023-04-15T05:18:51;43.64;38.52;63.40;;
4048;Laerm;2038;51.728;6.674;2023-04-15T05:21:17;43.12;38.81;54.93;;
4048;Laerm;2038;51.728;6.674;2023-04-15T05:23:44;46.36;40.03;64.50;;
4048;Laerm;2038;51.728;6.674;2023-04-15T05:26:10;45.70;40.13;57.33;;
4048;Laerm;2038;51.728;6.674;2023-04-15T05:28:37;46.74;40.33;58.76;;
4048;Laerm;2038;51.728;6.674;2023-04-15T05:31:03;44.58;39.92;55.97;;
4048;Laerm;2038;51.728;6.674;2023-04-15T05:33:29;45.42;39.46;59.81;;
4048;Laerm;2038;51.728;6.674;2023-04-15T05:35:55;43.16;39.46;53.58;;
4048;Laerm;2038;51.728;6.674;2023-04-15T05:38:21;45.35;39.58;63.06;;
4048;Laerm;2038;51.728;6.674;2023-04-15T05:40:48;48.46;39.21;67.27;;
4048;Laerm;2038;51.728;6.674;2023-04-15T05:43:14;44.85;38.81;57.57;;
4048;Laerm;2038;51.728;6.674;2023-04-15T05:45:41;44.52;39.81;54.75;;
4048;Laerm;2038;51.728;6.674;2023-04-15T05:48:07;42.75;39.46;54.00;;
4048;Laerm;2038;51.728;6.674;2023-04-15T05:50:33;45.03;40.13;53.83;;
4048;Laerm;2038;51.728;6.674;2023-04-15T05:53:00;44.50;39.81;53.48;;
4048;Laerm;2038;51.728;6.674;2023-04-15T05:55:27;44.14;38.74;54.60;;
4048;Laerm;2038;51.728;6.674;2023-04-15T05:57:53;44.21;37.32;57.20;;
4048;Laerm;2038;51.728;6.674;2023-04-15T06:00:19;45.28;37.52;59.05;;
4048;Laerm;2038;51.728;6.674;2023-04-15T06:02:46;43.31;37.52;56.39;;
4048;Laerm;2038;51.728;6.674;2023-04-15T06:05:12;46.72;38.37;59.46;;
4048;Laerm;2038;51.728;6.674;2023-04-15T06:07:39;43.80;38.21;55.12;;
4048;Laerm;2038;51.728;6.674;2023-04-15T06:10:06;43.96;37.70;58.03;;
4048;Laerm;2038;51.728;6.674;2023-04-15T06:12:33;44.86;37.70;57.71;;
4048;Laerm;2038;51.728;6.674;2023-04-15T06:14:59;44.26;36.91;57.46;;
4048;Laerm;2038;51.728;6.674;2023-04-15T06:17:26;48.71;38.21;60.65;;
4048;Laerm;2038;51.728;6.674;2023-04-15T06:19:52;46.00;38.87;58.22;;
4048;Laerm;2038;51.728;6.674;2023-04-15T06:22:22;43.48;38.67;56.09;;
4048;Laerm;2038;51.728;6.674;2023-04-15T06:24:49;45.81;39.08;61.39;;
4048;Laerm;2038;51.728;6.674;2023-04-15T06:27:16;45.54;38.81;59.19;;
4048;Laerm;2038;51.728;6.674;2023-04-15T06:29:43;43.18;39.11;56.29;;
4048;Laerm;2038;51.728;6.674;2023-04-15T06:32:09;44.39;38.95;55.36;;
4048;Laerm;2038;51.728;6.674;2023-04-15T06:34:36;45.50;38.81;61.28;;
4048;Laerm;2038;51.728;6.674;2023-04-15T06:37:03;45.17;38.67;55.77;;
4048;Laerm;2038;51.728;6.674;2023-04-15T06:39:29;45.65;38.67;60.83;;
4048;Laerm;2038;51.728;6.674;2023-04-15T06:41:55;43.20;38.21;60.73;;
4048;Laerm;2038;51.728;6.674;2023-04-15T06:44:21;45.76;37.88;60.15;;
4048;Laerm;2038;51.728;6.674;2023-04-15T06:46:48;49.31;38.81;61.25;;
4048;Laerm;2038;51.728;6.674;2023-04-15T06:49:14;46.50;39.08;58.00;;
4048;Laerm;2038;51.728;6.674;2023-04-15T06:51:41;44.91;38.52;58.66;;
4048;Laerm;2038;51.728;6.674;2023-04-15T06:54:07;45.73;38.05;57.41;;
4048;Laerm;2038;51.728;6.674;2023-04-15T06:56:34;46.13;37.70;61.38;;
4048;Laerm;2038;51.728;6.674;2023-04-15T06:59:00;45.49;38.21;57.11;;
4048;Laerm;2038;51.728;6.674;2023-04-15T07:01:27;44.64;37.52;55.30;;
4048;Laerm;2038;51.728;6.674;2023-04-15T07:03:53;44.95;37.52;56.44;;
4048;Laerm;2038;51.728;6.674;2023-04-15T07:06:19;46.52;37.12;60.86;;
4048;Laerm;2038;51.728;6.674;2023-04-15T07:08:46;49.96;38.21;63.86;;
4048;Laerm;2038;51.728;6.674;2023-04-15T07:11:13;44.35;36.98;62.01;;
4048;Laerm;2038;51.728;6.674;2023-04-15T07:13:39;43.87;37.12;56.22;;
4048;Laerm;2038;51.728;6.674;2023-04-15T07:16:05;44.46;37.52;54.39;;
4048;Laerm;2038;51.728;6.674;2023-04-15T07:18:31;45.92;38.67;54.69;;
4048;Laerm;2038;51.728;6.674;2023-04-15T07:20:57;44.89;37.32;55.18;;
4048;Laerm;2038;51.728;6.674;2023-04-15T07:23:24;45.67;37.12;55.85;;
4048;Laerm;2038;51.728;6.674;2023-04-15T07:25:50;45.86;37.70;56.12;;
4048;Laerm;2038;51.728;6.674;2023-04-15T07:28:17;45.45;37.12;56.55;;
4048;Laerm;2038;51.728;6.674;2023-04-15T07:30:43;43.42;36.91;54.43;;
4048;Laerm;2038;51.728;6.674;2023-04-15T07:33:09;42.85;37.32;53.96;;
4048;Laerm;2038;51.728;6.674;2023-04-15T07:35:35;48.49;37.32;60.46;;
4048;Laerm;2038;51.728;6.674;2023-04-15T07:38:02;45.08;36.34;59.54;;
4048;Laerm;2038;51.728;6.674;2023-04-15T07:40:28;46.22;37.52;54.53;;
4048;Laerm;2038;51.728;6.674;2023-04-15T07:42:55;46.44;37.12;57.62;;
4048;Laerm;2038;51.728;6.674;2023-04-15T07:45:23;46.88;37.12;57.17;;
4048;Laerm;2038;51.728;6.674;2023-04-15T07:47:49;43.89;37.32;59.57;;
4048;Laerm;2038;51.728;6.674;2023-04-15T07:50:16;44.92;36.91;55.62;;
4048;Laerm;2038;51.728;6.674;2023-04-15T07:52:44;50.10;36.69;66.28;;
4048;Laerm;2038;51.728;6.674;2023-04-15T07:55:11;45.28;37.12;56.34;;
4048;Laerm;2038;51.728;6.674;2023-04-15T07:57:37;44.89;37.32;56.55;;
4048;Laerm;2038;51.728;6.674;2023-04-15T08:00:05;45.36;37.52;58.57;;
4048;Laerm;2038;51.728;6.674;2023-04-15T08:02:32;46.57;37.70;60.01;;
4048;Laerm;2038;51.728;6.674;2023-04-15T08:05:00;47.37;38.05;59.10;;
4048;Laerm;2038;51.728;6.674;2023-04-15T08:07:28;46.71;37.32;57.53;;
4048;Laerm;2038;51.728;6.674;2023-04-15T08:09:54;46.56;37.70;55.85;;
4048;Laerm;2038;51.728;6.674;2023-04-15T08:12:21;45.75;36.69;57.44;;
4048;Laerm;2038;51.728;6.674;2023-04-15T08:14:47;48.99;36.91;61.79;;
4048;Laerm;2038;51.728;6.674;2023-04-15T08:17:13;46.50;36.91;61.75;;
4048;Laerm;2038;51.728;6.674;2023-04-15T08:19:40;47.39;36.91;58.79;;
4048;Laerm;2038;51.728;6.674;2023-04-15T08:22:07;45.64;36.20;59.91;;
4048;Laerm;2038;51.728;6.674;2023-04-15T08:24:33;46.19;38.52;56.14;;
4048;Laerm;2038;51.728;6.674;2023-04-15T08:27:00;48.25;36.45;62.92;;
4048;Laerm;2038;51.728;6.674;2023-04-15T08:29:29;44.14;36.69;54.10;;
4048;Laerm;2038;51.728;6.674;2023-04-15T08:31:55;48.37;39.21;58.54;;
4048;Laerm;2038;51.728;6.674;2023-04-15T08:34:22;49.65;39.08;66.77;;
4048;Laerm;2038;51.728;6.674;2023-04-15T08:36:49;47.52;38.47;57.62;;
4048;Laerm;2038;51.728;6.674;2023-04-15T08:39:16;47.85;37.52;59.35;;
4048;Laerm;2038;51.728;6.674;2023-04-15T08:41:53;45.16;36.69;55.68;;
4048;Laerm;2038;51.728;6.674;2023-04-15T08:44:23;43.79;35.94;57.33;;
4048;Laerm;2038;51.728;6.674;2023-04-15T08:46:52;45.79;37.12;56.08;;
4048;Laerm;2038;51.728;6.674;2023-04-15T08:49:20;45.87;36.91;56.41;;
4048;Laerm;2038;51.728;6.674;2023-04-15T08:51:48;47.81;37.52;58.27;;
4048;Laerm;2038;51.728;6.674;2023-04-15T08:54:14;48.40;36.45;66.17;;
4048;Laerm;2038;51.728;6.674;2023-04-15T08:56:41;51.68;37.32;66.53;;
4048;Laerm;2038;51.728;6.674;2023-04-15T08:59:08;45.85;37.12;57.19;;
4048;Laerm;2038;51.728;6.674;2023-04-15T09:01:37;50.66;38.37;67.89;;
4048;Laerm;2038;51.728;6.674;2023-04-15T09:04:04;46.83;37.70;57.90;;
4048;Laerm;2038;51.728;6.674;2023-04-15T09:06:33;51.16;38.81;65.27;;
4048;Laerm;2038;51.728;6.674;2023-04-15T09:08:59;49.82;37.88;63.41;;
4048;Laerm;2038;51.728;6.674;2023-04-15T09:11:25;44.26;36.91;54.68;;
4048;Laerm;2038;51.728;6.674;2023-04-15T09:13:52;47.61;37.12;60.79;;
4048;Laerm;2038;51.728;6.674;2023-04-15T09:16:18;48.72;38.37;62.27;;
4048;Laerm;2038;51.728;6.674;2023-04-15T09:18:45;50.34;37.70;65.31;;
4048;Laerm;2038;51.728;6.674;2023-04-15T09:21:14;49.38;37.32;60.44;;
4048;Laerm;2038;51.728;6.674;2023-04-15T09:23:58;49.82;38.21;65.39;;
4048;Laerm;2038;51.728;6.674;2023-04-15T09:26:36;52.22;39.46;71.44;;
4048;Laerm;2038;51.728;6.674;2023-04-15T09:29:08;48.13;38.05;61.40;;
4048;Laerm;2038;51.728;6.674;2023-04-15T09:31:36;46.61;38.37;62.78;;
4048;Laerm;2038;51.728;6.674;2023-04-15T09:34:02;50.17;38.21;64.80;;
4048;Laerm;2038;51.728;6.674;2023-04-15T09:36:28;47.06;38.21;61.93;;
4048;Laerm;2038;51.728;6.674;2023-04-15T09:38:58;48.22;37.52;60.83;;
4048;Laerm;2038;51.728;6.674;2023-04-15T09:41:27;45.50;36.20;55.93;;
4048;Laerm;2038;51.728;6.674;2023-04-15T09:43:54;43.85;36.91;54.84;;
4048;Laerm;2038;51.728;6.674;2023-04-15T09:46:39;50.69;38.21;66.08;;
4048;Laerm;2038;51.728;6.674;2023-04-15T09:49:11;48.64;38.37;62.88;;
4048;Laerm;2038;51.728;6.674;2023-04-15T09:51:38;52.08;38.52;71.40;;
4048;Laerm;2038;51.728;6.674;2023-04-15T09:54:04;46.53;37.52;57.80;;
4048;Laerm;2038;51.728;6.674;2023-04-15T09:56:38;49.97;38.37;64.21;;
4048;Laerm;2038;51.728;6.674;2023-04-15T09:59:08;46.43;37.70;56.44;;
4048;Laerm;2038;51.728;6.674;2023-04-15T10:01:34;50.13;37.70;66.07;;
4048;Laerm;2038;51.728;6.674;2023-04-15T10:04:05;49.33;38.81;65.11;;
4048;Laerm;2038;51.728;6.674;2023-04-15T10:06:32;45.27;37.32;58.82;;
4048;Laerm;2038;51.728;6.674;2023-04-15T10:08:59;50.18;38.81;62.20;;
4048;Laerm;2038;51.728;6.674;2023-04-15T10:11:29;47.73;38.21;59.28;;
4048;Laerm;2038;51.728;6.674;2023-04-15T10:13:56;47.91;38.02;59.86;;
4048;Laerm;2038;51.728;6.674;2023-04-15T10:16:26;47.76;37.52;58.79;;
4048;Laerm;2038;51.728;6.674;2023-04-15T10:19:00;48.21;37.12;61.45;;
4048;Laerm;2038;51.728;6.674;2023-04-15T10:21:29;50.05;38.21;60.45;;
4048;Laerm;2038;51.728;6.674;2023-04-15T10:23:57;55.94;39.70;69.99;;
4048;Laerm;2038;51.728;6.674;2023-04-15T10:26:24;52.06;38.52;67.52;;
4048;Laerm;2038;51.728;6.674;2023-04-15T10:28:52;47.85;37.17;60.20;;
4048;Laerm;2038;51.728;6.674;2023-04-15T10:31:18;47.92;37.70;61.48;;
4048;Laerm;2038;51.728;6.674;2023-04-15T10:33:46;47.06;36.91;58.84;;
4048;Laerm;2038;51.728;6.674;2023-04-15T10:36:14;45.34;37.52;58.42;;
4048;Laerm;2038;51.728;6.674;2023-04-15T10:38:45;46.99;36.91;58.57;;
4048;Laerm;2038;51.728;6.674;2023-04-15T10:41:29;50.14;37.70;65.72;;
4048;Laerm;2038;51.728;6.674;2023-04-15T10:44:03;50.09;39.34;64.19;;
4048;Laerm;2038;51.728;6.674;2023-04-15T10:46:41;46.60;37.52;58.35;;
4048;Laerm;2038;51.728;6.674;2023-04-15T10:49:24;50.19;37.52;64.71;;
4048;Laerm;2038;51.728;6.674;2023-04-15T10:51:56;48.00;38.21;61.46;;
4048;Laerm;2038;51.728;6.674;2023-04-15T10:57:08;49.18;38.05;64.62;;
4048;Laerm;2038;51.728;6.674;2023-04-15T11:02:45;47.46;38.05;58.10;;
4048;Laerm;2038;51.728;6.674;2023-04-15T11:05:15;46.22;37.12;56.17;;
4048;Laerm;2038;51.728;6.674;2023-04-15T11:07:56;46.26;36.45;57.20;;
4048;Laerm;2038;51.728;6.674;2023-04-15T11:15:41;47.45;36.91;60.10;;
4048;Laerm;2038;51.728;6.674;2023-04-15T11:18:22;50.95;39.08;69.25;;
4048;Laerm;2038;51.728;6.674;2023-04-15T11:20:52;51.24;38.37;66.10;;
4048;Laerm;2038;51.728;6.674;2023-04-15T11:23:40;52.41;37.88;63.59;;
4048;Laerm;2038;51.728;6.674;2023-04-15T11:26:12;49.42;38.74;62.71;;
4048;Laerm;2038;51.728;6.674;2023-04-15T11:28:43;56.84;37.32;76.93;;
4048;Laerm;2038;51.728;6.674;2023-04-15T11:31:17;48.11;37.32;64.71;;
4048;Laerm;2038;51.728;6.674;2023-04-15T11:34:05;47.53;38.21;58.35;;
4048;Laerm;2038;51.728;6.674;2023-04-15T11:36:32;46.87;37.12;57.05;;
4048;Laerm;2038;51.728;6.674;2023-04-15T11:38:58;47.93;38.67;62.26;;
4048;Laerm;2038;51.728;6.674;2023-04-15T11:41:25;47.36;38.52;60.01;;
4048;Laerm;2038;51.728;6.674;2023-04-15T11:43:51;54.77;37.88;71.87;;
4048;Laerm;2038;51.728;6.674;2023-04-15T11:46:18;48.16;37.32;58.38;;
4048;Laerm;2038;51.728;6.674;2023-04-15T11:48:45;48.48;38.37;58.09;;
4048;Laerm;2038;51.728;6.674;2023-04-15T11:51:13;46.60;37.52;55.86;;
4048;Laerm;2038;51.728;6.674;2023-04-15T11:53:45;47.63;37.17;59.87;;
4048;Laerm;2038;51.728;6.674;2023-04-15T11:56:21;49.16;35.94;68.03;;
4048;Laerm;2038;51.728;6.674;2023-04-15T11:58:52;47.85;38.05;60.63;;
4048;Laerm;2038;51.728;6.674;2023-04-15T12:01:19;45.14;36.69;55.13;;
4048;Laerm;2038;51.728;6.674;2023-04-15T12:03:47;49.17;36.20;63.79;;
4048;Laerm;2038;51.728;6.674;2023-04-15T12:06:22;45.57;38.37;57.26;;
4048;Laerm;2038;51.728;6.674;2023-04-15T12:11:47;55.57;39.46;78.82;;
4048;Laerm;2038;51.728;6.674;2023-04-15T12:14:33;50.24;38.37;67.09;;
4048;Laerm;2038;51.728;6.674;2023-04-15T12:17:09;48.07;39.34;58.52;;
4048;Laerm;2038;51.728;6.674;2023-04-15T12:19:42;48.11;39.21;57.42;;
4048;Laerm;2038;51.728;6.674;2023-04-15T12:22:15;52.02;38.95;64.36;;
4048;Laerm;2038;51.728;6.674;2023-04-15T12:24:43;53.14;37.88;71.52;;
4048;Laerm;2038;51.728;6.674;2023-04-15T12:27:14;54.33;39.81;73.11;;
4048;Laerm;2038;51.728;6.674;2023-04-15T12:29:42;46.71;39.34;60.60;;
4048;Laerm;2038;51.728;6.674;2023-04-15T12:32:14;48.48;38.52;61.51;;
4048;Laerm;2038;51.728;6.674;2023-04-15T12:34:49;45.32;39.08;55.65;;
4048;Laerm;2038;51.728;6.674;2023-04-15T12:37:16;47.78;38.05;59.10;;
4048;Laerm;2038;51.728;6.674;2023-04-15T12:39:45;49.54;38.95;60.89;;
4048;Laerm;2038;51.728;6.674;2023-04-15T12:42:13;46.11;38.32;58.82;;
4048;Laerm;2038;51.728;6.674;2023-04-15T12:44:40;46.07;38.05;59.25;;
4048;Laerm;2038;51.728;6.674;2023-04-15T12:47:08;45.64;37.52;56.26;;
4048;Laerm;2038;51.728;6.674;2023-04-15T12:49:34;48.69;38.95;60.35;;
4048;Laerm;2038;51.728;6.674;2023-04-15T12:52:02;45.79;37.70;60.46;;
4048;Laerm;2038;51.728;6.674;2023-04-15T12:54:30;45.59;38.21;57.55;;
4048;Laerm;2038;51.728;6.674;2023-04-15T12:56:58;49.99;38.95;66.61;;
4048;Laerm;2038;51.728;6.674;2023-04-15T12:59:24;51.28;40.13;65.61;;
4048;Laerm;2038;51.728;6.674;2023-04-15T13:01:51;48.13;38.67;60.72;;
4048;Laerm;2038;51.728;6.674;2023-04-15T13:04:19;50.05;38.21;65.35;;
4048;Laerm;2038;51.728;6.674;2023-04-15T13:06:45;46.87;36.69;57.32;;
4048;Laerm;2038;51.728;6.674;2023-04-15T13:09:11;47.28;36.56;59.40;;
4048;Laerm;2038;51.728;6.674;2023-04-15T13:11:38;46.45;36.69;58.32;;
4048;Laerm;2038;51.728;6.674;2023-04-15T13:14:06;47.17;37.52;57.87;;
4048;Laerm;2038;51.728;6.674;2023-04-15T13:16:34;49.48;38.05;65.07;;
4048;Laerm;2038;51.728;6.674;2023-04-15T13:19:02;45.70;37.12;59.68;;
4048;Laerm;2038;51.728;6.674;2023-04-15T13:21:30;47.77;37.12;63.05;;
4048;Laerm;2038;51.728;6.674;2023-04-15T13:24:00;52.53;38.47;64.66;;
4048;Laerm;2038;51.728;6.674;2023-04-15T13:26:26;45.92;38.05;56.04;;
4048;Laerm;2038;51.728;6.674;2023-04-15T13:28:53;45.64;35.94;58.62;;
4048;Laerm;2038;51.728;6.674;2023-04-15T13:31:19;46.43;37.70;57.07;;
4048;Laerm;2038;51.728;6.674;2023-04-15T13:33:45;46.73;37.12;58.20;;
4048;Laerm;2038;51.728;6.674;2023-04-15T13:36:11;45.99;37.32;58.86;;
4048;Laerm;2038;51.728;6.674;2023-04-15T13:38:37;48.58;36.69;59.91;;
4048;Laerm;2038;51.728;6.674;2023-04-15T13:41:04;46.93;37.32;57.29;;
4048;Laerm;2038;51.728;6.674;2023-04-15T13:43:30;46.38;38.21;58.47;;
4048;Laerm;2038;51.728;6.674;2023-04-15T13:45:58;46.75;37.32;57.50;;
4048;Laerm;2038;51.728;6.674;2023-04-15T13:48:24;48.86;38.05;63.82;;
4048;Laerm;2038;51.728;6.674;2023-04-15T13:50:51;45.50;37.52;57.30;;
4048;Laerm;2038;51.728;6.674;2023-04-15T13:53:17;49.82;38.81;67.04;;
4048;Laerm;2038;51.728;6.674;2023-04-15T13:55:43;48.52;37.70;61.20;;
4048;Laerm;2038;51.728;6.674;2023-04-15T13:58:10;46.05;36.69;60.71;;
4048;Laerm;2038;51.728;6.674;2023-04-15T14:00:36;46.37;37.87;56.02;;
4048;Laerm;2038;51.728;6.674;2023-04-15T14:03:03;45.82;37.52;59.44;;
4048;Laerm;2038;51.728;6.674;2023-04-15T14:05:29;46.61;37.12;62.39;;
4048;Laerm;2038;51.728;6.674;2023-04-15T14:07:56;44.37;36.69;57.55;;
4048;Laerm;2038;51.728;6.674;2023-04-15T14:10:22;45.98;37.52;57.50;;
4048;Laerm;2038;51.728;6.674;2023-04-15T14:12:48;45.81;37.88;61.55;;
4048;Laerm;2038;51.728;6.674;2023-04-15T14:15:14;47.07;38.21;61.92;;
4048;Laerm;2038;51.728;6.674;2023-04-15T14:17:41;44.92;37.70;57.96;;
4048;Laerm;2038;51.728;6.674;2023-04-15T14:20:08;46.57;37.88;60.01;;
4048;Laerm;2038;51.728;6.674;2023-04-15T14:22:34;48.84;38.52;60.00;;
4048;Laerm;2038;51.728;6.674;2023-04-15T14:25:01;52.91;38.67;70.05;;
4048;Laerm;2038;51.728;6.674;2023-04-15T14:27:28;46.60;38.05;58.29;;